Terminal Aerodrome Forecast
Issued by NWS

Home | Current Version | Previous Version | Text Only | Print | Product List | Glossary On
Versions: 1 2 3 4 5 6 7 8 9 10 11 12 13 14 15 16
000
FTUS41 KBOX 162327
TAFBAF
TAF
KBAF 162327Z 1700/1724 30004KT P6SM SCT050
     FM170200 33004KT P6SM SKC
     FM171400 34005KT P6SM FEW150=

USA.gov is the U.S. government's official web portal to all federal, state and local government web resources and services.